Time;durP1;ratioP1;P1;durP2;ratioP2;P2;SDS_P1;SDS_P2;PMS_P1;PMS_P2;Temp;Humidity;BMP_temperature;BMP_pressure;BME280_temperature;BME280_humidity;BME280_pressure;Samples;Min_cycle;Max_cycle;Signal;HPM_P1;HPM_P2
2024/04/22 00:00:27;;;;;;;0.75;0.28;;;;;;;;;;2267501;26;20472;-71
2024/04/22 00:01:29;;;;;;;2.25;0.50;;;;;;;;;;2270193;26;19995;-68
2024/04/22 00:02:30;;;;;;;2.15;0.35;;;;;;;;;;2270857;26;20432;-69
2024/04/22 00:03:32;;;;;;;1.17;0.30;;;;;;;;;;2270422;26;20455;-70
2024/04/22 00:04:34;;;;;;;1.50;0.30;;;;;;;;;;2270636;26;20334;-72
2024/04/22 00:05:36;;;;;;;1.55;0.10;;;;;;;;;;2270655;26;20008;-69
2024/04/22 00:06:37;;;;;;;0.98;0.38;;;;;;;;;;2268590;26;20018;-71
2024/04/22 00:07:38;;;;;;;1.95;0.38;;;;;;;;;;2270507;26;20400;-68
2024/04/22 00:08:40;;;;;;;1.90;0.38;;;;;;;;;;2270806;26;20002;-70
2024/04/22 00:09:41;;;;;;;2.40;0.30;;;;;;;;;;2269944;26;19994;-70
2024/04/22 00:10:43;;;;;;;3.50;0.43;;;;;;;;;;2270561;26;20459;-69
2024/04/22 00:11:44;;;;;;;2.22;0.40;;;;;;;;;;2270467;26;20013;-71
2024/04/22 00:12:45;;;;;;;0.65;0.20;;;;;;;;;;2267629;26;20014;-69
2024/04/22 00:13:47;;;;;;;0.82;0.30;;;;;;;;;;2270416;26;20097;-69
2024/04/22 00:14:49;;;;;;;1.63;0.30;;;;;;;;;;2270575;26;20435;-70
2024/04/22 00:15:51;;;;;;;3.60;0.30;;;;;;;;;;2270590;26;20047;-73
2024/04/22 00:16:52;;;;;;;0.52;0.15;;;;;;;;;;2270302;26;20005;-72
2024/04/22 00:17:53;;;;;;;1.13;0.40;;;;;;;;;;2254221;26;19999;-70
2024/04/22 00:18:55;;;;;;;2.40;0.32;;;;;;;;;;2254743;26;20061;-69
2024/04/22 00:19:58;;;;;;;0.98;0.20;;;;;;;;;;2270457;26;20024;-68
2024/04/22 00:20:59;;;;;;;2.10;0.43;;;;;;;;;;2270438;26;20013;-68
2024/04/22 00:22:01;;;;;;;1.77;0.40;;;;;;;;;;2270403;26;20353;-69
2024/04/22 00:23:02;;;;;;;2.05;0.38;;;;;;;;;;2270427;26;20005;-69
2024/04/22 00:24:05;;;;;;;3.25;0.40;;;;;;;;;;2270453;26;20076;-67
2024/04/22 00:25:07;;;;;;;2.25;0.57;;;;;;;;;;2268479;26;20433;-69
2024/04/22 00:26:08;;;;;;;3.58;0.30;;;;;;;;;;2270365;26;20038;-68
2024/04/22 00:27:10;;;;;;;3.90;0.30;;;;;;;;;;2270408;26;19994;-67
2024/04/22 00:28:11;;;;;;;2.22;0.32;;;;;;;;;;2270298;26;19998;-69
2024/04/22 00:29:12;;;;;;;2.58;0.20;;;;;;;;;;2270444;26;20461;-68
2024/04/22 00:30:14;;;;;;;0.93;0.20;;;;;;;;;;2270553;26;20001;-69
2024/04/22 00:31:15;;;;;;;1.13;0.38;;;;;;;;;;2270245;26;20062;-67
2024/04/22 00:32:16;;;;;;;0.82;0.50;;;;;;;;;;2268307;26;20014;-68
2024/04/22 00:33:18;;;;;;;1.20;0.25;;;;;;;;;;2270415;26;20009;-67
2024/04/22 00:34:19;;;;;;;1.45;0.10;;;;;;;;;;2270661;26;20431;-67
2024/04/22 00:35:20;;;;;;;1.33;0.30;;;;;;;;;;2270458;26;20066;-68
2024/04/22 00:36:22;;;;;;;0.93;0.20;;;;;;;;;;2270909;26;19999;-66
2024/04/22 00:37:23;;;;;;;1.38;0.30;;;;;;;;;;2270855;26;19998;-67
2024/04/22 00:38:28;;;;;;;1.42;0.40;;;;;;;;;;2270817;26;19998;-67
2024/04/22 00:39:29;;;;;;;4.10;0.32;;;;;;;;;;2269385;26;20499;-68
2024/04/22 00:40:31;;;;;;;4.72;0.40;;;;;;;;;;2270947;26;19998;-67
2024/04/22 00:41:33;;;;;;;1.70;0.22;;;;;;;;;;2270874;26;20005;-68
2024/04/22 00:42:35;;;;;;;2.83;0.20;;;;;;;;;;2270911;26;20009;-67
2024/04/22 00:43:36;;;;;;;2.80;0.20;;;;;;;;;;2268653;26;20338;-69
2024/04/22 00:44:37;;;;;;;0.88;0.10;;;;;;;;;;2271180;26;19998;-69
2024/04/22 00:45:39;;;;;;;0.88;0.40;;;;;;;;;;2254855;26;20050;-69
2024/04/22 00:46:40;;;;;;;2.78;0.38;;;;;;;;;;2255412;26;20491;-68
2024/04/22 00:47:42;;;;;;;1.50;0.28;;;;;;;;;;2271065;26;20034;-67
2024/04/22 00:48:43;;;;;;;0.95;0.20;;;;;;;;;;2272062;26;20009;-69
2024/04/22 00:49:45;;;;;;;1.10;0.35;;;;;;;;;;2269454;26;20002;-70
2024/04/22 00:50:47;;;;;;;0.55;0.22;;;;;;;;;;2270812;26;20467;-68
2024/04/22 00:51:49;;;;;;;0.60;0.15;;;;;;;;;;2270650;26;20002;-69
2024/04/22 00:52:50;;;;;;;1.27;0.40;;;;;;;;;;2270940;26;20016;-69
2024/04/22 00:53:52;;;;;;;1.85;0.13;;;;;;;;;;2270958;26;20070;-69
2024/04/22 00:54:54;;;;;;;0.52;0.20;;;;;;;;;;2270916;26;20521;-69
2024/04/22 00:55:56;;;;;;;0.85;0.32;;;;;;;;;;2268542;26;19998;-68
2024/04/22 00:56:57;;;;;;;0.95;0.30;;;;;;;;;;2270830;26;20078;-69
2024/04/22 00:58:02;;;;;;;3.53;0.45;;;;;;;;;;2270877;26;20440;-68
2024/04/22 00:59:04;;;;;;;1.27;0.38;;;;;;;;;;2270843;26;20013;-69
2024/04/22 01:00:06;;;;;;;1.50;0.40;;;;;;;;;;2268678;26;19998;-65
2024/04/22 01:01:09;;;;;;;0.40;0.22;;;;;;;;;;2270860;26;20021;-66
2024/04/22 01:02:11;;;;;;;2.50;0.70;;;;;;;;;;2270430;26;20017;-67
2024/04/22 01:03:12;;;;;;;2.22;0.30;;;;;;;;;;2270732;26;20002;-66
2024/04/22 01:04:14;;;;;;;1.30;0.40;;;;;;;;;;2270562;26;19994;-67
2024/04/22 01:05:15;;;;;;;2.50;0.82;;;;;;;;;;2268603;26;20427;-67
2024/04/22 01:06:16;;;;;;;1.27;0.50;;;;;;;;;;2270564;26;20008;-66
2024/04/22 01:07:18;;;;;;;1.23;0.20;;;;;;;;;;2270906;26;20431;-69
2024/04/22 01:08:19;;;;;;;2.80;0.73;;;;;;;;;;2270642;26;20005;-68
2024/04/22 01:09:20;;;;;;;2.30;0.30;;;;;;;;;;2270199;26;19998;-70
2024/04/22 01:10:22;;;;;;;0.90;0.20;;;;;;;;;;2270609;26;20446;-68
2024/04/22 01:11:24;;;;;;;0.80;0.17;;;;;;;;;;2269740;26;19999;-68
2024/04/22 01:12:25;;;;;;;0.77;0.25;;;;;;;;;;2269929;26;20339;-70
2024/04/22 01:13:26;;;;;;;2.45;0.30;;;;;;;;;;2270258;26;19998;-67
2024/04/22 01:14:28;;;;;;;0.57;0.20;;;;;;;;;;2268898;26;19994;-68
2024/04/22 01:15:31;;;;;;;1.30;0.22;;;;;;;;;;2270555;26;20031;-69
2024/04/22 01:16:32;;;;;;;2.03;0.38;;;;;;;;;;2270346;26;20410;-69
2024/04/22 01:17:40;;;;;;;1.08;0.20;;;;;;;;;;2270495;26;19998;-67
2024/04/22 01:18:42;;;;;;;1.35;0.40;;;;;;;;;;2269853;26;20407;-69
2024/04/22 01:19:44;;;;;;;1.45;0.30;;;;;;;;;;2254421;26;20003;-70
2024/04/22 01:20:45;;;;;;;2.20;0.60;;;;;;;;;;2252699;26;20066;-68
2024/04/22 01:21:47;;;;;;;2.03;0.45;;;;;;;;;;2270532;26;20452;-68
2024/04/22 01:22:48;;;;;;;1.48;0.32;;;;;;;;;;2270570;26;19998;-68
2024/04/22 01:23:50;;;;;;;1.52;0.55;;;;;;;;;;2270456;26;20009;-68
2024/04/22 01:24:53;;;;;;;1.25;0.40;;;;;;;;;;2270598;26;20047;-68
2024/04/22 01:25:55;;;;;;;1.17;0.50;;;;;;;;;;2252074;26;20042;-69
2024/04/22 01:27:00;;;;;;;3.15;0.45;;;;;;;;;;2254854;26;20075;-70
2024/04/22 01:28:01;;;;;;;1.48;0.60;;;;;;;;;;2270536;26;20008;-70
2024/04/22 01:29:04;;;;;;;2.03;0.60;;;;;;;;;;2253850;26;20363;-68
2024/04/22 01:30:06;;;;;;;4.10;0.77;;;;;;;;;;2252763;26;20026;-69
2024/04/22 01:31:07;;;;;;;3.08;0.90;;;;;;;;;;2269342;26;20010;-70
2024/04/22 01:32:09;;;;;;;3.08;0.40;;;;;;;;;;2270262;26;20001;-70
2024/04/22 01:33:10;;;;;;;0.85;0.40;;;;;;;;;;2270425;26;20002;-69
2024/04/22 01:34:11;;;;;;;1.80;0.57;;;;;;;;;;2270677;26;20070;-69
2024/04/22 01:35:13;;;;;;;2.90;0.77;;;;;;;;;;2270512;26;20323;-69
2024/04/22 01:36:15;;;;;;;2.88;1.05;;;;;;;;;;2268191;26;20006;-69
2024/04/22 01:37:16;;;;;;;3.58;0.93;;;;;;;;;;2252706;26;20022;-68
2024/04/22 01:38:17;;;;;;;3.22;0.65;;;;;;;;;;2254392;26;19995;-70
2024/04/22 01:39:19;;;;;;;2.33;0.68;;;;;;;;;;2270602;26;20009;-70
2024/04/22 01:40:20;;;;;;;1.00;0.30;;;;;;;;;;2270446;26;20463;-67
2024/04/22 01:41:21;;;;;;;2.20;0.70;;;;;;;;;;2270580;26;19998;-68
2024/04/22 01:42:23;;;;;;;3.25;0.30;;;;;;;;;;2270340;26;20010;-69
2024/04/22 01:43:25;;;;;;;1.52;0.28;;;;;;;;;;2270559;26;20021;-69
2024/04/22 01:44:27;;;;;;;1.98;0.38;;;;;;;;;;2268698;26;20514;-66
2024/04/22 01:45:28;;;;;;;2.85;0.40;;;;;;;;;;2270342;26;20417;-67
2024/04/22 01:46:29;;;;;;;1.38;0.40;;;;;;;;;;2270706;26;19998;-68
2024/04/22 01:47:31;;;;;;;2.15;0.28;;;;;;;;;;2270154;26;19998;-67
2024/04/22 01:48:32;;;;;;;0.98;0.35;;;;;;;;;;2254095;26;20031;-68
2024/04/22 01:49:34;;;;;;;2.15;0.25;;;;;;;;;;2252467;26;20090;-67
2024/04/22 01:50:35;;;;;;;0.95;0.32;;;;;;;;;;2270277;26;20014;-67
2024/04/22 01:51:37;;;;;;;1.95;0.40;;;;;;;;;;2270458;26;20074;-68
2024/04/22 01:52:38;;;;;;;2.05;0.22;;;;;;;;;;2270435;26;20003;-68
2024/04/22 01:53:39;;;;;;;1.38;0.20;;;;;;;;;;2270031;26;19994;-67
2024/04/22 01:54:41;;;;;;;1.77;0.30;;;;;;;;;;2270567;26;20006;-68
2024/04/22 01:55:42;;;;;;;2.67;0.40;;;;;;;;;;2270270;26;19994;-69
2024/04/22 01:56:44;;;;;;;1.77;0.35;;;;;;;;;;2270473;26;20431;-68
2024/04/22 01:57:45;;;;;;;1.40;0.25;;;;;;;;;;2268166;26;20006;-68
2024/04/22 01:58:49;;;;;;;2.85;0.52;;;;;;;;;;2270301;26;20006;-69
2024/04/22 01:59:50;;;;;;;2.13;0.30;;;;;;;;;;2270236;26;20009;-69
2024/04/22 02:00:52;;;;;;;1.33;0.47;;;;;;;;;;2270343;26;20012;-68
2024/04/22 02:01:54;;;;;;;2.83;0.50;;;;;;;;;;2270171;26;20723;-68
2024/04/22 02:02:55;;;;;;;1.98;0.35;;;;;;;;;;2252250;26;20073;-69
2024/04/22 02:03:57;;;;;;;3.60;0.50;;;;;;;;;;2254514;26;20413;-69
2024/04/22 02:04:58;;;;;;;1.80;0.30;;;;;;;;;;2270409;26;20013;-69
2024/04/22 02:05:59;;;;;;;1.63;0.40;;;;;;;;;;2270107;26;20459;-69
2024/04/22 02:07:01;;;;;;;2.60;0.47;;;;;;;;;;2270241;26;20001;-70
2024/04/22 02:08:02;;;;;;;0.95;0.28;;;;;;;;;;2254142;26;20041;-68
2024/04/22 02:09:04;;;;;;;2.58;0.30;;;;;;;;;;2254160;26;20479;-67
2024/04/22 02:10:06;;;;;;;1.05;0.30;;;;;;;;;;2267924;26;20006;-69
2024/04/22 02:11:08;;;;;;;1.38;0.30;;;;;;;;;;2270420;26;20047;-69
2024/04/22 02:12:09;;;;;;;1.95;0.25;;;;;;;;;;2270207;26;19994;-69
2024/04/22 02:13:11;;;;;;;1.60;0.30;;;;;;;;;;2270322;26;20002;-69
2024/04/22 02:14:12;;;;;;;1.88;0.45;;;;;;;;;;2270180;26;20006;-68
2024/04/22 02:15:14;;;;;;;2.55;0.30;;;;;;;;;;2267818;26;20002;-69
2024/04/22 02:16:15;;;;;;;1.02;0.30;;;;;;;;;;2270495;26;20392;-68
2024/04/22 02:17:18;;;;;;;1.55;0.30;;;;;;;;;;2270034;26;20005;-69
2024/04/22 02:18:19;;;;;;;1.50;0.35;;;;;;;;;;2270266;26;20339;-69
2024/04/22 02:19:20;;;;;;;2.35;0.30;;;;;;;;;;2270250;26;20013;-68
2024/04/22 02:20:22;;;;;;;1.20;0.32;;;;;;;;;;2254550;26;20447;-68
2024/04/22 02:21:29;;;;;;;1.08;0.20;;;;;;;;;;2254525;26;19999;-68
2024/04/22 02:22:30;;;;;;;1.33;0.30;;;;;;;;;;2253482;26;20005;-69
2024/04/22 02:23:32;;;;;;;4.05;0.40;;;;;;;;;;2252860;26;20014;-70
2024/04/22 02:24:33;;;;;;;2.15;0.30;;;;;;;;;;2270298;26;20005;-70
2024/04/22 02:25:34;;;;;;;3.08;0.38;;;;;;;;;;2267708;26;20017;-69
2024/04/22 02:26:36;;;;;;;1.35;0.25;;;;;;;;;;2270262;26;20005;-71
2024/04/22 02:27:37;;;;;;;2.28;0.30;;;;;;;;;;2270217;26;20009;-68
2024/04/22 02:28:38;;;;;;;0.98;0.30;;;;;;;;;;2270436;26;20141;-69
2024/04/22 02:29:40;;;;;;;1.50;0.32;;;;;;;;;;2270118;26;19994;-69
2024/04/22 02:30:41;;;;;;;0.35;0.20;;;;;;;;;;2270152;26;20347;-69
2024/04/22 02:31:43;;;;;;;1.20;0.60;;;;;;;;;;2270195;26;20062;-70
2024/04/22 02:32:44;;;;;;;0.63;0.20;;;;;;;;;;2267825;26;20009;-70
2024/04/22 02:33:46;;;;;;;2.17;0.40;;;;;;;;;;2270288;26;20002;-71
2024/04/22 02:34:49;;;;;;;1.10;0.40;;;;;;;;;;2270341;26;19998;-69
2024/04/22 02:35:50;;;;;;;1.33;0.30;;;;;;;;;;2270340;26;20009;-67
2024/04/22 02:36:52;;;;;;;1.55;0.30;;;;;;;;;;2270419;26;20002;-70
2024/04/22 02:37:53;;;;;;;3.90;0.32;;;;;;;;;;2270400;26;20005;-70
2024/04/22 02:38:54;;;;;;;2.40;0.43;;;;;;;;;;2268035;26;20450;-69
2024/04/22 02:39:56;;;;;;;2.45;0.30;;;;;;;;;;2270073;26;20006;-70
2024/04/22 02:40:57;;;;;;;1.90;0.30;;;;;;;;;;2270333;26;20009;-68
2024/04/22 02:41:58;;;;;;;3.13;0.43;;;;;;;;;;2270038;26;20319;-70
2024/04/22 02:43:00;;;;;;;2.00;0.20;;;;;;;;;;2270319;26;20013;-68
2024/04/22 02:44:01;;;;;;;1.70;0.45;;;;;;;;;;2270104;26;20002;-69
2024/04/22 02:45:03;;;;;;;1.50;0.22;;;;;;;;;;2270228;26;19997;-69
2024/04/22 02:46:04;;;;;;;3.42;0.50;;;;;;;;;;2267840;26;20006;-69
2024/04/22 02:47:07;;;;;;;2.30;0.32;;;;;;;;;;2270132;26;20073;-68
2024/04/22 02:48:08;;;;;;;0.52;0.20;;;;;;;;;;2270366;26;20311;-69
2024/04/22 02:49:10;;;;;;;1.58;0.28;;;;;;;;;;2270089;26;20002;-68
2024/04/22 02:50:11;;;;;;;1.15;0.28;;;;;;;;;;2270064;26;19998;-69
2024/04/22 02:51:13;;;;;;;3.90;0.40;;;;;;;;;;2270585;26;20012;-67
2024/04/22 02:52:14;;;;;;;2.35;0.40;;;;;;;;;;2268007;26;20376;-70
2024/04/22 02:53:15;;;;;;;1.67;0.30;;;;;;;;;;2270608;26;20013;-69
2024/04/22 02:54:24;;;;;;;1.67;0.25;;;;;;;;;;2275145;26;19997;-69
2024/04/22 02:55:28;;;;;;;2.60;0.40;;;;;;;;;;2272624;26;20075;-67
2024/04/22 02:56:30;;;;;;;1.15;0.20;;;;;;;;;;2275137;26;20070;-68
2024/04/22 02:57:31;;;;;;;1.55;0.50;;;;;;;;;;2275373;26;20051;-70
2024/04/22 02:58:33;;;;;;;4.50;0.38;;;;;;;;;;2271058;26;19998;-69
2024/04/22 02:59:34;;;;;;;2.50;0.50;;;;;;;;;;2267789;26;20006;-69
2024/04/22 03:00:36;;;;;;;2.28;0.75;;;;;;;;;;2270229;26;20002;-69
2024/04/22 03:01:37;;;;;;;1.92;0.35;;;;;;;;;;2269956;26;19997;-69
2024/04/22 03:02:38;;;;;;;2.85;0.22;;;;;;;;;;2270322;26;20005;-69
2024/04/22 03:03:40;;;;;;;2.60;0.22;;;;;;;;;;2269929;26;19998;-70
2024/04/22 03:04:41;;;;;;;1.75;0.47;;;;;;;;;;2270150;26;20070;-68
2024/04/22 03:05:42;;;;;;;3.05;0.68;;;;;;;;;;2269910;26;20391;-69
2024/04/22 03:06:44;;;;;;;1.25;0.50;;;;;;;;;;2269974;26;20029;-69
2024/04/22 03:07:45;;;;;;;2.67;0.20;;;;;;;;;;2267665;26;20009;-71
2024/04/22 03:08:46;;;;;;;1.35;0.40;;;;;;;;;;2269979;26;20005;-70
2024/04/22 03:09:48;;;;;;;2.03;0.40;;;;;;;;;;2269329;26;20067;-69
2024/04/22 03:10:50;;;;;;;5.65;0.43;;;;;;;;;;2269890;26;20002;-69
2024/04/22 03:11:51;;;;;;;3.28;0.50;;;;;;;;;;2269959;26;20035;-69
2024/04/22 03:12:52;;;;;;;1.02;0.30;;;;;;;;;;2250325;26;20003;-66
2024/04/22 03:13:54;;;;;;;1.13;0.30;;;;;;;;;;2253855;26;20065;-64
2024/04/22 03:14:55;;;;;;;2.13;0.43;;;;;;;;;;2269785;26;20074;-69
2024/04/22 03:15:56;;;;;;;4.45;0.52;;;;;;;;;;2269851;26;20347;-68
2024/04/22 03:16:58;;;;;;;1.70;0.63;;;;;;;;;;2269884;26;20008;-68
2024/04/22 03:17:59;;;;;;;4.50;0.50;;;;;;;;;;2269422;26;19994;-67
2024/04/22 03:19:01;;;;;;;1.67;0.50;;;;;;;;;;2269895;26;20002;-69
2024/04/22 03:20:03;;;;;;;2.88;0.52;;;;;;;;;;2253639;26;20413;-69
2024/04/22 03:21:05;;;;;;;5.03;0.32;;;;;;;;;;2252174;26;20002;-69
2024/04/22 03:22:06;;;;;;;1.83;0.50;;;;;;;;;;2269849;26;19998;-69
2024/04/22 03:23:07;;;;;;;2.45;0.40;;;;;;;;;;2269898;26;20017;-69
2024/04/22 03:24:09;;;;;;;5.97;0.50;;;;;;;;;;2269843;26;19998;-68
2024/04/22 03:25:10;;;;;;;1.80;0.50;;;;;;;;;;2269922;26;19998;-67
2024/04/22 03:26:12;;;;;;;1.58;0.65;;;;;;;;;;2269807;26;20002;-69
2024/04/22 03:27:13;;;;;;;2.65;0.50;;;;;;;;;;2269838;26;20009;-68
2024/04/22 03:28:15;;;;;;;1.27;0.50;;;;;;;;;;2267762;26;20035;-68
2024/04/22 03:29:17;;;;;;;1.35;0.50;;;;;;;;;;2269744;26;20006;-69
2024/04/22 03:30:18;;;;;;;1.10;0.35;;;;;;;;;;2269733;26;20009;-69
2024/04/22 03:31:20;;;;;;;2.67;0.40;;;;;;;;;;2269847;26;19994;-69
2024/04/22 03:32:21;;;;;;;0.82;0.30;;;;;;;;;;2269666;26;19994;-71
2024/04/22 03:33:23;;;;;;;1.55;0.45;;;;;;;;;;2269850;26;20005;-67
2024/04/22 03:34:24;;;;;;;1.42;0.30;;;;;;;;;;2268921;26;20006;-68
2024/04/22 03:35:25;;;;;;;1.67;0.50;;;;;;;;;;2271174;26;20002;-69
2024/04/22 03:36:27;;;;;;;2.85;0.93;;;;;;;;;;2269418;26;20369;-67
2024/04/22 03:37:28;;;;;;;3.05;0.60;;;;;;;;;;2271044;26;20035;-68
2024/04/22 03:38:29;;;;;;;1.33;0.30;;;;;;;;;;2271267;26;19998;-69
2024/04/22 03:39:31;;;;;;;0.73;0.30;;;;;;;;;;2271127;26;20043;-69
2024/04/22 03:40:32;;;;;;;0.80;0.30;;;;;;;;;;2271435;26;20012;-69
2024/04/22 03:41:34;;;;;;;2.00;0.50;;;;;;;;;;2271048;26;19998;-68
2024/04/22 03:42:35;;;;;;;1.48;0.40;;;;;;;;;;2269109;26;20419;-69
2024/04/22 03:43:36;;;;;;;4.25;0.55;;;;;;;;;;2270952;26;20006;-68
2024/04/22 03:44:38;;;;;;;1.90;0.40;;;;;;;;;;2269735;26;20332;-67
2024/04/22 03:45:39;;;;;;;2.10;0.32;;;;;;;;;;2271080;26;20034;-69
2024/04/22 03:50:50;;;;;;;0.98;0.28;;;;;;;;;;2255152;26;20473;-71
2024/04/22 03:51:51;;;;;;;2.20;0.30;;;;;;;;;;2260734;26;20024;-71
2024/04/22 03:52:55;;;;;;;2.05;0.40;;;;;;;;;;2270467;26;20443;-71
2024/04/22 03:53:56;;;;;;;2.55;0.30;;;;;;;;;;2268943;26;20041;-69
2024/04/22 03:54:57;;;;;;;1.13;0.40;;;;;;;;;;2270739;26;20071;-70
2024/04/22 03:55:59;;;;;;;0.98;0.50;;;;;;;;;;2270515;26;20017;-70
2024/04/22 03:57:00;;;;;;;1.08;0.30;;;;;;;;;;2271001;26;20002;-69
2024/04/22 03:58:02;;;;;;;2.00;0.55;;;;;;;;;;2270360;26;20361;-70
2024/04/22 03:59:03;;;;;;;1.88;0.50;;;;;;;;;;2271194;26;20006;-70
2024/04/22 04:00:05;;;;;;;3.45;0.88;;;;;;;;;;2250575;26;20035;-69
2024/04/22 04:01:06;;;;;;;4.35;0.90;;;;;;;;;;2249786;26;19998;-69
2024/04/22 04:02:07;;;;;;;3.17;0.93;;;;;;;;;;2270152;26;20336;-69
2024/04/22 04:03:09;;;;;;;3.63;0.82;;;;;;;;;;2270431;26;20410;-70
2024/04/22 04:04:10;;;;;;;3.22;0.55;;;;;;;;;;2271168;26;19998;-70
2024/04/22 04:05:11;;;;;;;2.22;0.50;;;;;;;;;;2270969;26;20010;-70
2024/04/22 04:06:14;;;;;;;2.13;0.50;;;;;;;;;;2268714;26;20341;-70
2024/04/22 04:07:16;;;;;;;3.03;0.55;;;;;;;;;;2270936;26;20002;-70
2024/04/22 04:08:18;;;;;;;1.90;0.45;;;;;;;;;;2271080;26;19994;-69
2024/04/22 04:09:20;;;;;;;2.13;0.50;;;;;;;;;;2270617;26;20046;-69
2024/04/22 04:10:21;;;;;;;1.70;0.50;;;;;;;;;;2271346;26;19998;-69
2024/04/22 04:11:27;;;;;;;0.50;0.20;;;;;;;;;;2255094;26;20013;-71
2024/04/22 04:12:29;;;;;;;2.97;0.70;;;;;;;;;;2255012;26;20071;-69
2024/04/22 04:13:30;;;;;;;1.35;0.22;;;;;;;;;;2271126;26;20075;-69
2024/04/22 04:14:31;;;;;;;2.88;0.40;;;;;;;;;;2271458;26;20415;-70
2024/04/22 04:15:33;;;;;;;5.18;0.68;;;;;;;;;;2271120;26;20060;-69
2024/04/22 04:16:35;;;;;;;2.88;0.73;;;;;;;;;;2268617;26;20033;-68
2024/04/22 04:17:36;;;;;;;2.00;0.55;;;;;;;;;;2270938;26;20101;-69
2024/04/22 04:18:42;;;;;;;4.60;0.50;;;;;;;;;;2270729;26;20026;-70
2024/04/22 04:19:44;;;;;;;2.15;0.50;;;;;;;;;;2268662;26;20370;-69
2024/04/22 04:20:46;;;;;;;1.60;0.30;;;;;;;;;;2271104;26;20174;-69
2024/04/22 04:21:48;;;;;;;3.08;0.75;;;;;;;;;;2271115;26;19994;-69
2024/04/22 04:22:49;;;;;;;2.83;0.40;;;;;;;;;;2271160;26;20071;-69
2024/04/22 04:23:51;;;;;;;1.00;0.50;;;;;;;;;;2271013;26;20439;-68
2024/04/22 04:24:52;;;;;;;1.17;0.40;;;;;;;;;;2271184;26;20074;-69
2024/04/22 04:25:53;;;;;;;2.10;0.30;;;;;;;;;;2270927;26;19994;-69
2024/04/22 04:26:55;;;;;;;2.33;0.50;;;;;;;;;;2268667;26;20423;-68
2024/04/22 04:27:56;;;;;;;2.40;0.50;;;;;;;;;;2266519;26;20327;-69
2024/04/22 04:28:57;;;;;;;2.25;0.52;;;;;;;;;;2269960;26;20002;-68
2024/04/22 04:29:59;;;;;;;2.55;0.50;;;;;;;;;;2271004;26;20002;-68
2024/04/22 04:31:00;;;;;;;3.28;0.50;;;;;;;;;;2270717;26;19998;-68
2024/04/22 04:32:02;;;;;;;1.98;0.30;;;;;;;;;;2271053;26;20002;-68
2024/04/22 04:33:03;;;;;;;2.05;0.50;;;;;;;;;;2270753;26;20044;-69
2024/04/22 04:34:05;;;;;;;2.13;0.40;;;;;;;;;;2268700;26;20074;-68
2024/04/22 04:35:06;;;;;;;1.35;0.50;;;;;;;;;;2270887;26;20454;-68
2024/04/22 04:36:08;;;;;;;1.48;0.57;;;;;;;;;;2254761;26;20071;-67
2024/04/22 04:37:10;;;;;;;0.77;0.38;;;;;;;;;;2253956;26;20048;-67
2024/04/22 04:38:11;;;;;;;1.95;0.30;;;;;;;;;;2255606;26;19994;-64
2024/04/22 04:39:12;;;;;;;3.53;0.60;;;;;;;;;;2270790;26;20323;-68
2024/04/22 04:40:14;;;;;;;1.80;0.70;;;;;;;;;;2270844;26;20044;-69
2024/04/22 04:41:15;;;;;;;6.75;0.73;;;;;;;;;;2268730;26;20513;-68
2024/04/22 04:42:16;;;;;;;1.67;0.55;;;;;;;;;;2270898;26;19994;-67
2024/04/22 04:43:19;;;;;;;1.88;0.98;;;;;;;;;;2254600;26;20010;-66
2024/04/22 04:44:20;;;;;;;4.70;0.60;;;;;;;;;;2255425;26;20137;-67
2024/04/22 04:45:22;;;;;;;2.20;0.40;;;;;;;;;;2270845;26;20002;-67
2024/04/22 04:46:23;;;;;;;1.23;0.43;;;;;;;;;;2269988;26;20004;-69
2024/04/22 04:47:24;;;;;;;2.83;0.70;;;;;;;;;;2268520;26;20082;-66
2024/04/22 04:48:26;;;;;;;4.53;0.73;;;;;;;;;;2270587;26;20403;-69
2024/04/22 04:49:27;;;;;;;1.88;0.60;;;;;;;;;;2270727;26;19994;-71
2024/04/22 04:50:29;;;;;;;2.05;0.60;;;;;;;;;;2270704;26;20711;-71
2024/04/22 04:51:30;;;;;;;2.97;0.73;;;;;;;;;;2270702;26;20026;-69
2024/04/22 04:52:32;;;;;;;2.83;0.45;;;;;;;;;;2270525;26;20418;-71
2024/04/22 04:53:33;;;;;;;3.45;0.77;;;;;;;;;;2270644;26;20001;-73
2024/04/22 04:54:34;;;;;;;2.28;0.40;;;;;;;;;;2268428;26;20360;-69
2024/04/22 04:55:36;;;;;;;0.95;0.40;;;;;;;;;;2254822;26;20003;-68
2024/04/22 04:56:37;;;;;;;3.40;0.65;;;;;;;;;;2255043;26;20005;-69
2024/04/22 04:57:39;;;;;;;3.05;0.60;;;;;;;;;;2270908;26;20407;-70
2024/04/22 04:58:40;;;;;;;2.92;0.77;;;;;;;;;;2270965;26;19998;-70
2024/04/22 04:59:41;;;;;;;2.90;0.50;;;;;;;;;;2271096;26;20002;-68
2024/04/22 05:00:43;;;;;;;3.95;0.68;;;;;;;;;;2273792;26;19994;-68
2024/04/22 05:01:44;;;;;;;4.13;0.85;;;;;;;;;;2270344;26;20006;-68
2024/04/22 05:02:45;;;;;;;3.20;0.90;;;;;;;;;;2273465;26;19998;-67
2024/04/22 05:03:47;;;;;;;4.55;1.10;;;;;;;;;;2270186;26;20378;-68
2024/04/22 05:04:50;;;;;;;1.40;0.52;;;;;;;;;;2270074;26;20016;-68
2024/04/22 05:05:58;;;;;;;2.55;0.70;;;;;;;;;;2269658;26;19994;-65
2024/04/22 05:06:59;;;;;;;5.15;0.95;;;;;;;;;;2264150;26;20017;-65
2024/04/22 05:08:03;;;;;;;1.83;0.40;;;;;;;;;;2264924;26;20041;-62
2024/04/22 05:09:04;;;;;;;3.53;0.77;;;;;;;;;;2269254;26;20036;-65
2024/04/22 05:10:06;;;;;;;1.10;0.50;;;;;;;;;;2268697;26;20018;-63
2024/04/22 05:11:08;;;;;;;1.95;0.55;;;;;;;;;;2264587;26;20013;-63
2024/04/22 05:12:09;;;;;;;1.35;0.73;;;;;;;;;;2267804;26;20907;-65
2024/04/22 05:13:10;;;;;;;2.67;0.68;;;;;;;;;;2268642;26;20014;-70
2024/04/22 05:14:12;;;;;;;3.08;1.10;;;;;;;;;;2267862;26;20099;-71
2024/04/22 05:15:13;;;;;;;1.33;0.35;;;;;;;;;;2267736;26;20812;-68
2024/04/22 05:16:14;;;;;;;3.08;0.80;;;;;;;;;;2268569;26;20006;-70
2024/04/22 05:17:16;;;;;;;2.60;0.60;;;;;;;;;;2250942;26;20053;-70
2024/04/22 05:18:18;;;;;;;4.32;0.80;;;;;;;;;;2251320;26;20010;-70
2024/04/22 05:19:19;;;;;;;4.47;0.73;;;;;;;;;;2268024;26;20009;-71
2024/04/22 05:20:21;;;;;;;2.90;0.63;;;;;;;;;;2268201;26;20038;-70
2024/04/22 05:21:22;;;;;;;4.60;0.80;;;;;;;;;;2268694;26;20009;-71
2024/04/22 05:22:23;;;;;;;1.75;0.80;;;;;;;;;;2268612;26;19994;-71
2024/04/22 05:23:25;;;;;;;3.25;0.43;;;;;;;;;;2267008;26;19998;-72
2024/04/22 05:24:27;;;;;;;2.28;0.63;;;;;;;;;;2268615;26;20010;-70
2024/04/22 05:25:28;;;;;;;2.85;1.00;;;;;;;;;;2252381;26;20011;-70
2024/04/22 05:26:29;;;;;;;7.32;0.90;;;;;;;;;;2253101;26;20360;-70
2024/04/22 05:27:34;;;;;;;2.47;0.50;;;;;;;;;;2267993;26;20002;-71
2024/04/22 05:28:36;;;;;;;3.22;0.63;;;;;;;;;;2266475;26;20013;-73
2024/04/22 05:29:38;;;;;;;1.50;0.52;;;;;;;;;;2269323;26;20043;-71
2024/04/22 05:30:39;;;;;;;3.22;0.88;;;;;;;;;;2263353;26;20014;-69
2024/04/22 05:31:40;;;;;;;2.65;0.85;;;;;;;;;;2266229;26;20020;-71
2024/04/22 05:32:46;;;;;;;3.47;0.90;;;;;;;;;;2269781;26;20014;-69
2024/04/22 05:36:40;;;;;;;2.33;0.63;;;;;;;;;;2223163;26;20012;-71
2024/04/22 05:37:42;;;;;;;3.10;0.47;;;;;;;;;;2223867;26;20004;-73
2024/04/22 05:38:44;;;;;;;0.95;0.32;;;;;;;;;;2222832;26;20008;-70
2024/04/22 05:39:45;;;;;;;5.43;0.90;;;;;;;;;;2223866;26;20326;-63
2024/04/22 05:40:46;;;;;;;3.40;0.88;;;;;;;;;;2224268;26;19997;-65
2024/04/22 05:41:48;;;;;;;2.95;0.75;;;;;;;;;;2223903;26;20066;-67
2024/04/22 05:42:50;;;;;;;1.52;0.55;;;;;;;;;;2224677;26;20007;-67
2024/04/22 05:43:52;;;;;;;4.93;0.90;;;;;;;;;;2224603;26;20102;-66
2024/04/22 05:44:53;;;;;;;1.10;0.57;;;;;;;;;;2223684;26;20004;-66
2024/04/22 05:45:54;;;;;;;5.45;1.17;;;;;;;;;;2221253;26;20063;-66
2024/04/22 05:46:56;;;;;;;7.57;2.85;;;;;;;;;;2223485;26;20012;-67
2024/04/22 05:47:57;;;;;;;2.53;1.00;;;;;;;;;;2224021;26;20031;-63
2024/04/22 05:48:58;;;;;;;3.55;0.95;;;;;;;;;;2222443;26;20023;-69
2024/04/22 05:50:00;;;;;;;0.73;0.40;;;;;;;;;;2223625;26;20074;-65
2024/04/22 05:51:02;;;;;;;6.07;0.98;;;;;;;;;;2223378;26;20431;-64
2024/04/22 05:52:03;;;;;;;2.65;0.60;;;;;;;;;;2223582;26;20077;-63
2024/04/22 05:53:05;;;;;;;5.40;1.00;;;;;;;;;;2222932;26;20075;-65
2024/04/22 05:54:08;;;;;;;1.25;0.52;;;;;;;;;;2224222;26;20004;-66
2024/04/22 05:55:10;;;;;;;4.03;0.68;;;;;;;;;;2223924;26;20040;-66
2024/04/22 05:56:11;;;;;;;4.47;1.10;;;;;;;;;;2223187;26;20004;-66
2024/04/22 05:57:12;;;;;;;1.67;0.50;;;;;;;;;;2222984;26;19996;-63
2024/04/22 05:58:14;;;;;;;2.60;0.70;;;;;;;;;;2221684;26;20056;-64
2024/04/22 05:59:17;;;;;;;2.13;0.85;;;;;;;;;;2223572;26;20461;-65
2024/04/22 06:00:18;;;;;;;2.05;0.85;;;;;;;;;;2223762;26;20013;-64
2024/04/22 06:01:20;;;;;;;3.80;0.93;;;;;;;;;;2223563;26;20015;-65
2024/04/22 06:02:21;;;;;;;2.53;0.70;;;;;;;;;;2223635;26;20073;-64
2024/04/22 06:03:22;;;;;;;4.07;0.80;;;;;;;;;;2223064;26;20019;-66
2024/04/22 06:04:24;;;;;;;1.73;0.73;;;;;;;;;;2223093;26;20527;-65
2024/04/22 06:05:27;;;;;;;4.95;1.00;;;;;;;;;;2223578;26;20004;-71
2024/04/22 06:06:28;;;;;;;2.70;0.50;;;;;;;;;;2222820;26;20004;-65
2024/04/22 06:07:31;;;;;;;2.35;0.80;;;;;;;;;;2222496;26;20018;-69
2024/04/22 06:08:32;;;;;;;3.83;0.70;;;;;;;;;;2222810;26;20015;-76
2024/04/22 06:09:35;;;;;;;4.60;0.60;;;;;;;;;;2222382;26;20023;-78
2024/04/22 06:10:36;;;;;;;3.33;0.80;;;;;;;;;;2221099;26;20008;-76
2024/04/22 06:11:38;;;;;;;5.22;0.75;;;;;;;;;;2244612;26;20009;-75
2024/04/22 06:12:39;;;;;;;6.78;1.60;;;;;;;;;;2276112;26;19994;-75
2024/04/22 06:13:40;;;;;;;3.60;0.85;;;;;;;;;;2277759;26;19998;-76
2024/04/22 06:14:42;;;;;;;1.83;0.40;;;;;;;;;;2261367;26;20006;-76
2024/04/22 06:15:43;;;;;;;1.50;0.68;;;;;;;;;;2260187;26;20075;-74
2024/04/22 06:16:45;;;;;;;2.45;0.70;;;;;;;;;;2255729;26;20014;-76